Time;durP1;ratioP1;P1;durP2;ratioP2;P2;SDS_P1;SDS_P2;PMS_P1;PMS_P2;Temp;Humidity;BMP_temperature;BMP_pressure;BME280_temperature;BME280_humidity;BME280_pressure;Samples;Min_cycle;Max_cycle;Signal;HPM_P1;HPM_P2
2022/02/15 00:00:18;;;;;;;6.40;2.60;;;;;;;;;;5067327;28;20188;-68
2022/02/15 00:02:43;;;;;;;10.20;2.80;;;;;;;;;;5065301;28;20215;-68
2022/02/15 00:05:08;;;;;;;4.73;3.00;;;;;;;;;;5067651;28;20552;-68
2022/02/15 00:07:35;;;;;;;8.97;3.63;;;;;;;;;;5069960;28;20230;-68
2022/02/15 00:10:00;;;;;;;13.23;3.53;;;;;;;;;;5072299;28;20196;-68
2022/02/15 00:12:25;;;;;;;4.80;2.37;;;;;;;;;;5052265;28;20311;-68
2022/02/15 00:14:51;;;;;;;7.73;2.80;;;;;;;;;;5053294;28;20173;-68
2022/02/15 00:17:16;;;;;;;4.97;2.23;;;;;;;;;;5052797;28;20196;-68
2022/02/15 00:19:41;;;;;;;5.60;1.97;;;;;;;;;;5048895;28;20294;-68
2022/02/15 00:22:06;;;;;;;6.70;2.10;;;;;;;;;;5064532;28;20604;-67
2022/02/15 00:24:31;;;;;;;9.00;2.47;;;;;;;;;;5069360;28;20184;-68
2022/02/15 00:26:56;;;;;;;4.33;2.20;;;;;;;;;;5071506;28;20204;-69
2022/02/15 00:29:22;;;;;;;3.07;2.23;;;;;;;;;;5069891;28;20192;-69
2022/02/15 00:31:47;;;;;;;6.40;2.80;;;;;;;;;;5050459;28;20181;-69
2022/02/15 00:34:12;;;;;;;5.33;2.83;;;;;;;;;;5048734;28;20260;-68
2022/02/15 00:36:37;;;;;;;3.67;2.63;;;;;;;;;;5044239;28;20189;-69
2022/02/15 00:39:03;;;;;;;7.93;2.60;;;;;;;;;;5048322;28;20184;-68
2022/02/15 00:41:28;;;;;;;5.57;2.60;;;;;;;;;;5046416;28;20767;-68
2022/02/15 00:43:53;;;;;;;10.93;4.50;;;;;;;;;;5063325;28;20176;-69
2022/02/15 00:46:18;;;;;;;9.13;3.23;;;;;;;;;;5070736;28;20232;-68
2022/02/15 00:48:43;;;;;;;12.67;4.20;;;;;;;;;;5070808;28;20252;-69
2022/02/15 00:51:08;;;;;;;10.43;4.33;;;;;;;;;;5070806;28;20347;-68
2022/02/15 00:53:34;;;;;;;11.43;4.60;;;;;;;;;;5068341;28;20227;-69
2022/02/15 00:55:59;;;;;;;7.83;4.20;;;;;;;;;;5043091;28;20178;-68
2022/02/15 00:58:24;;;;;;;7.60;4.40;;;;;;;;;;5066011;28;20188;-68
2022/02/15 01:00:49;;;;;;;9.93;4.60;;;;;;;;;;5068360;28;20189;-69
2022/02/15 01:03:15;;;;;;;9.67;4.73;;;;;;;;;;5069071;28;20173;-68
2022/02/15 01:05:40;;;;;;;13.67;4.63;;;;;;;;;;5067324;28;20328;-69
2022/02/15 01:08:05;;;;;;;10.83;4.73;;;;;;;;;;5049865;28;20169;-68
2022/02/15 01:10:31;;;;;;;12.90;4.33;;;;;;;;;;5068731;28;20684;-68
2022/02/15 01:12:56;;;;;;;11.50;4.10;;;;;;;;;;5050537;28;20165;-68
2022/02/15 01:15:21;;;;;;;15.10;4.47;;;;;;;;;;5070525;28;20546;-67
2022/02/15 01:17:47;;;;;;;9.83;3.80;;;;;;;;;;5068793;28;20185;-70
2022/02/15 01:20:12;;;;;;;6.93;3.17;;;;;;;;;;5069741;28;20257;-68
2022/02/15 01:22:38;;;;;;;8.10;3.50;;;;;;;;;;5072068;28;20508;-69
2022/02/15 01:25:03;;;;;;;4.33;2.67;;;;;;;;;;5070875;28;20181;-69
2022/02/15 01:27:29;;;;;;;6.23;2.83;;;;;;;;;;5071082;28;20169;-68
2022/02/15 01:29:54;;;;;;;9.17;2.90;;;;;;;;;;5060647;28;20554;-68
2022/02/15 01:32:19;;;;;;;5.57;2.60;;;;;;;;;;5067836;28;20185;-68
2022/02/15 01:34:44;;;;;;;3.70;2.23;;;;;;;;;;5069993;28;20177;-69
2022/02/15 01:37:09;;;;;;;5.07;2.83;;;;;;;;;;5070145;28;20204;-69
2022/02/15 01:39:35;;;;;;;9.80;2.77;;;;;;;;;;5068862;28;20200;-68
2022/02/15 01:42:01;;;;;;;7.63;2.90;;;;;;;;;;5069872;28;20219;-67
2022/02/15 01:44:26;;;;;;;6.97;2.63;;;;;;;;;;5069103;28;20272;-68
2022/02/15 01:46:51;;;;;;;7.63;2.80;;;;;;;;;;5065962;28;20208;-68
2022/02/15 01:49:16;;;;;;;4.87;2.30;;;;;;;;;;5069104;28;20173;-68
2022/02/15 01:51:41;;;;;;;7.40;3.07;;;;;;;;;;5069769;28;20181;-68
2022/02/15 01:54:07;;;;;;;4.00;2.70;;;;;;;;;;5070625;28;20227;-68
2022/02/15 01:56:32;;;;;;;7.47;3.10;;;;;;;;;;5069924;28;20247;-68
2022/02/15 01:58:57;;;;;;;10.33;3.00;;;;;;;;;;5067982;28;20184;-68
2022/02/15 02:01:22;;;;;;;10.03;4.30;;;;;;;;;;5066787;28;20201;-69
2022/02/15 02:03:48;;;;;;;9.37;3.37;;;;;;;;;;5068728;28;22213;-69
2022/02/15 02:06:13;;;;;;;12.70;4.40;;;;;;;;;;5069331;28;20212;-69
2022/02/15 02:08:38;;;;;;;7.10;3.43;;;;;;;;;;5069016;28;20732;-69
2022/02/15 02:11:03;;;;;;;9.70;3.83;;;;;;;;;;5068495;28;20289;-68
2022/02/15 02:13:29;;;;;;;7.97;3.83;;;;;;;;;;5068829;28;20176;-70
2022/02/15 02:15:54;;;;;;;8.37;3.97;;;;;;;;;;5070163;28;20330;-68
2022/02/15 02:18:19;;;;;;;9.17;3.97;;;;;;;;;;5069133;28;20183;-68
2022/02/15 02:20:45;;;;;;;7.97;4.03;;;;;;;;;;5081384;22;20252;-69
2022/02/15 02:23:11;;;;;;;8.77;4.60;;;;;;;;;;5068396;28;20185;-69
2022/02/15 02:25:36;;;;;;;7.93;3.73;;;;;;;;;;5069871;28;20288;-70
2022/02/15 02:28:02;;;;;;;8.00;3.97;;;;;;;;;;5070072;28;20175;-70
2022/02/15 02:30:27;;;;;;;6.27;3.80;;;;;;;;;;5058019;28;20255;-69
2022/02/15 02:32:52;;;;;;;11.53;4.30;;;;;;;;;;5049925;28;20181;-68
2022/02/15 02:35:18;;;;;;;9.30;3.77;;;;;;;;;;5062821;28;20195;-67
2022/02/15 02:37:43;;;;;;;7.00;3.70;;;;;;;;;;5064330;28;20173;-67
2022/02/15 02:40:09;;;;;;;8.73;3.97;;;;;;;;;;5066103;28;20313;-70
2022/02/15 02:42:35;;;;;;;9.33;4.20;;;;;;;;;;5066846;28;20231;-68
2022/02/15 02:45:03;;;;;;;11.13;4.73;;;;;;;;;;5069216;28;20248;-70
2022/02/15 02:47:28;;;;;;;9.30;3.97;;;;;;;;;;5052145;28;20409;-69
2022/02/15 02:49:53;;;;;;;10.73;5.37;;;;;;;;;;5054108;28;20728;-69
2022/02/15 02:52:19;;;;;;;8.20;4.17;;;;;;;;;;5071436;28;20177;-68
2022/02/15 02:54:45;;;;;;;7.97;4.13;;;;;;;;;;5073750;28;20258;-69
2022/02/15 02:57:12;;;;;;;10.73;4.20;;;;;;;;;;5074419;28;20213;-69
2022/02/15 02:59:38;;;;;;;11.47;4.27;;;;;;;;;;5073718;28;20184;-69
2022/02/15 03:02:03;;;;;;;8.67;3.93;;;;;;;;;;5072277;28;20200;-68
2022/02/15 03:04:29;;;;;;;7.13;3.70;;;;;;;;;;5065953;28;20191;-68
2022/02/15 03:06:54;;;;;;;8.13;3.90;;;;;;;;;;5077034;28;20576;-67
2022/02/15 03:09:19;;;;;;;7.13;5.10;;;;;;;;;;5075617;28;20268;-68
2022/02/15 03:11:44;;;;;;;9.37;4.23;;;;;;;;;;5074009;28;20646;-70
2022/02/15 03:14:09;;;;;;;8.80;4.20;;;;;;;;;;5054568;28;20177;-71
2022/02/15 03:16:35;;;;;;;9.73;4.43;;;;;;;;;;5072109;28;20275;-67
2022/02/15 03:19:00;;;;;;;8.43;3.67;;;;;;;;;;5072256;28;20198;-68
2022/02/15 03:21:25;;;;;;;9.13;3.77;;;;;;;;;;5072826;28;20326;-67
2022/02/15 03:23:51;;;;;;;9.67;4.37;;;;;;;;;;5070467;28;20205;-67
2022/02/15 03:26:16;;;;;;;10.13;4.10;;;;;;;;;;5069751;28;20193;-68
2022/02/15 03:28:41;;;;;;;8.63;4.53;;;;;;;;;;5072060;28;20273;-68
2022/02/15 03:31:06;;;;;;;8.67;3.87;;;;;;;;;;5060614;28;20262;-67
2022/02/15 03:33:32;;;;;;;6.53;4.17;;;;;;;;;;5069860;28;20556;-68
2022/02/15 03:35:57;;;;;;;6.43;3.83;;;;;;;;;;5071862;28;20211;-69
2022/02/15 03:38:23;;;;;;;11.27;4.83;;;;;;;;;;5066748;28;20196;-68
2022/02/15 03:43:31;;;;;;;7.67;3.93;;;;;;;;;;5072286;28;20199;-69
2022/02/15 03:45:57;;;;;;;9.07;4.73;;;;;;;;;;5072200;28;20200;-69
2022/02/15 03:48:22;;;;;;;6.37;3.80;;;;;;;;;;5072419;28;20177;-68
2022/02/15 03:50:47;;;;;;;10.13;4.30;;;;;;;;;;5072486;28;20286;-69
2022/02/15 03:53:15;;;;;;;12.33;5.03;;;;;;;;;;5071855;28;20203;-69
2022/02/15 03:55:40;;;;;;;9.30;3.87;;;;;;;;;;5070784;28;20280;-69
2022/02/15 03:58:06;;;;;;;11.30;4.53;;;;;;;;;;5070973;28;20660;-69
2022/02/15 04:00:31;;;;;;;8.73;4.00;;;;;;;;;;5072312;28;20192;-69
2022/02/15 04:02:56;;;;;;;7.13;4.50;;;;;;;;;;5071484;28;20185;-69
2022/02/15 04:05:22;;;;;;;10.23;4.47;;;;;;;;;;5072939;28;20268;-69
2022/02/15 04:07:47;;;;;;;7.90;4.47;;;;;;;;;;5054753;28;20657;-69
2022/02/15 04:10:14;;;;;;;9.67;3.83;;;;;;;;;;5071018;28;20197;-68
2022/02/15 04:12:39;;;;;;;9.80;5.33;;;;;;;;;;5052850;28;20234;-69
2022/02/15 04:15:04;;;;;;;8.97;5.17;;;;;;;;;;5072162;28;20181;-69
2022/02/15 04:17:30;;;;;;;9.00;4.30;;;;;;;;;;5070983;28;20191;-69
2022/02/15 04:19:55;;;;;;;6.83;4.50;;;;;;;;;;5070978;28;20224;-69
2022/02/15 04:22:20;;;;;;;9.37;4.90;;;;;;;;;;5072177;28;20198;-69
2022/02/15 04:24:45;;;;;;;9.33;4.87;;;;;;;;;;5071625;28;20200;-69
2022/02/15 04:27:10;;;;;;;12.27;5.07;;;;;;;;;;5072042;28;20204;-70
2022/02/15 04:29:36;;;;;;;9.37;4.90;;;;;;;;;;5071748;28;20177;-68
2022/02/15 04:32:01;;;;;;;12.53;5.37;;;;;;;;;;5064138;28;20262;-68
2022/02/15 04:34:26;;;;;;;11.37;5.50;;;;;;;;;;5070873;28;20220;-70
2022/02/15 04:36:51;;;;;;;12.27;5.10;;;;;;;;;;5070028;28;20169;-68
2022/02/15 04:39:16;;;;;;;9.27;5.20;;;;;;;;;;5066509;28;20184;-68
2022/02/15 04:41:41;;;;;;;9.00;5.13;;;;;;;;;;5069328;28;20193;-68
2022/02/15 04:44:07;;;;;;;7.23;4.63;;;;;;;;;;5048516;28;20568;-70
2022/02/15 04:46:32;;;;;;;12.77;5.07;;;;;;;;;;5067395;28;20200;-70
2022/02/15 04:48:58;;;;;;;10.37;5.80;;;;;;;;;;5068524;28;20650;-68
2022/02/15 04:51:23;;;;;;;8.67;5.37;;;;;;;;;;5064279;28;20646;-67
2022/02/15 04:53:48;;;;;;;14.07;6.63;;;;;;;;;;5066501;28;20185;-68
2022/02/15 04:56:13;;;;;;;14.03;5.83;;;;;;;;;;5071266;28;20176;-68
2022/02/15 04:58:38;;;;;;;13.13;5.47;;;;;;;;;;5070404;28;20253;-68
2022/02/15 05:01:04;;;;;;;14.13;6.93;;;;;;;;;;5070337;28;20201;-68
2022/02/15 05:03:29;;;;;;;10.47;6.53;;;;;;;;;;5070333;28;20208;-67
2022/02/15 05:05:55;;;;;;;9.43;5.60;;;;;;;;;;5071517;28;20219;-68
2022/02/15 05:08:20;;;;;;;11.27;6.03;;;;;;;;;;5071133;28;20188;-68
2022/02/15 05:10:45;;;;;;;12.50;5.50;;;;;;;;;;5071874;28;20225;-68
2022/02/15 05:13:11;;;;;;;15.30;6.30;;;;;;;;;;5070216;28;20180;-66
2022/02/15 05:15:36;;;;;;;16.20;6.67;;;;;;;;;;5071114;28;20531;-69
2022/02/15 05:18:02;;;;;;;11.57;6.00;;;;;;;;;;5069081;28;20173;-69
2022/02/15 05:20:28;;;;;;;14.53;6.13;;;;;;;;;;5070250;28;20591;-69
2022/02/15 05:22:53;;;;;;;9.87;5.50;;;;;;;;;;5071045;28;20179;-68
2022/02/15 05:25:18;;;;;;;13.00;6.07;;;;;;;;;;5070325;28;20212;-68
2022/02/15 05:27:43;;;;;;;15.23;6.37;;;;;;;;;;5071726;28;20231;-68
2022/02/15 05:30:09;;;;;;;43.50;8.97;;;;;;;;;;5069734;28;20205;-69
2022/02/15 05:32:34;;;;;;;12.00;5.83;;;;;;;;;;5070637;28;20181;-69
2022/02/15 05:34:59;;;;;;;10.53;6.07;;;;;;;;;;5070878;28;20173;-69
2022/02/15 05:37:25;;;;;;;15.53;6.33;;;;;;;;;;5069865;28;20177;-68
2022/02/15 05:39:50;;;;;;;11.13;5.47;;;;;;;;;;5070456;28;20185;-69
2022/02/15 05:42:15;;;;;;;12.57;5.33;;;;;;;;;;5070659;28;20191;-68
2022/02/15 05:44:40;;;;;;;16.27;6.27;;;;;;;;;;5069057;28;20562;-69
2022/02/15 05:47:05;;;;;;;16.47;5.00;;;;;;;;;;5070735;28;20704;-69
2022/02/15 05:49:31;;;;;;;14.90;4.93;;;;;;;;;;5070016;28;20620;-68
2022/02/15 05:51:56;;;;;;;9.83;4.53;;;;;;;;;;5064537;28;20488;-69
2022/02/15 05:54:21;;;;;;;11.63;5.30;;;;;;;;;;5067286;28;20176;-68
2022/02/15 05:56:46;;;;;;;15.13;5.50;;;;;;;;;;5067470;28;20188;-68
2022/02/15 05:59:11;;;;;;;10.17;4.57;;;;;;;;;;5064538;28;20189;-68
2022/02/15 06:01:37;;;;;;;11.83;4.87;;;;;;;;;;5058358;28;20288;-68
2022/02/15 06:04:11;;;;;;;12.67;5.57;;;;;;;;;;5068628;28;20206;-69
2022/02/15 06:06:40;;;;;;;23.63;4.83;;;;;;;;;;5069156;28;20211;-69
2022/02/15 06:09:05;;;;;;;8.47;3.83;;;;;;;;;;5071708;28;20191;-69
2022/02/15 06:11:30;;;;;;;15.53;3.83;;;;;;;;;;5071086;28;20197;-69
2022/02/15 06:13:57;;;;;;;10.23;4.27;;;;;;;;;;5068309;28;20173;-69
2022/02/15 06:16:23;;;;;;;13.70;3.93;;;;;;;;;;5061334;28;20216;-69
2022/02/15 06:18:48;;;;;;;18.93;5.43;;;;;;;;;;5068318;28;20216;-69
2022/02/15 06:21:13;;;;;;;10.33;4.07;;;;;;;;;;5067124;28;20289;-69
2022/02/15 06:23:39;;;;;;;11.23;4.43;;;;;;;;;;5068077;28;20184;-69
2022/02/15 06:26:04;;;;;;;10.23;4.63;;;;;;;;;;5069516;28;20197;-68
2022/02/15 06:28:29;;;;;;;13.10;6.27;;;;;;;;;;5069095;28;20654;-69
2022/02/15 06:30:56;;;;;;;15.20;5.40;;;;;;;;;;5072464;28;20264;-69
2022/02/15 06:33:22;;;;;;;9.00;3.93;;;;;;;;;;5069811;28;20230;-69
2022/02/15 06:35:47;;;;;;;15.80;5.30;;;;;;;;;;5069340;28;20173;-68
2022/02/15 06:38:12;;;;;;;13.63;4.23;;;;;;;;;;5069007;28;20209;-69
2022/02/15 06:40:38;;;;;;;13.10;4.70;;;;;;;;;;5067983;28;20189;-68
2022/02/15 06:43:03;;;;;;;10.57;4.60;;;;;;;;;;5069421;28;20276;-69
2022/02/15 06:45:28;;;;;;;11.03;3.97;;;;;;;;;;5068993;28;20566;-69
2022/02/15 06:47:54;;;;;;;18.27;4.10;;;;;;;;;;5069052;28;20177;-69
2022/02/15 06:50:19;;;;;;;8.17;3.20;;;;;;;;;;5049947;28;20205;-69
2022/02/15 06:52:44;;;;;;;10.20;3.73;;;;;;;;;;5069377;28;20184;-69
2022/02/15 06:55:09;;;;;;;12.20;4.30;;;;;;;;;;5068668;28;20180;-69
2022/02/15 06:57:35;;;;;;;18.00;3.83;;;;;;;;;;5068154;28;20180;-69
2022/02/15 07:00:00;;;;;;;12.93;4.30;;;;;;;;;;5067267;28;20207;-69
2022/02/15 07:02:25;;;;;;;12.53;4.37;;;;;;;;;;5061725;28;20618;-69
2022/02/15 07:04:51;;;;;;;12.30;3.80;;;;;;;;;;5063222;28;21623;-69
2022/02/15 07:07:16;;;;;;;13.07;3.90;;;;;;;;;;5044519;28;20206;-69
2022/02/15 07:09:41;;;;;;;9.33;3.63;;;;;;;;;;5067668;28;20183;-69
2022/02/15 07:12:08;;;;;;;14.90;4.27;;;;;;;;;;5069712;28;20177;-69
2022/02/15 07:14:33;;;;;;;9.57;4.43;;;;;;;;;;5068252;28;20196;-69
2022/02/15 07:16:58;;;;;;;9.33;3.53;;;;;;;;;;5067697;28;20177;-69
2022/02/15 07:19:25;;;;;;;8.90;4.10;;;;;;;;;;5069140;28;20187;-69
2022/02/15 07:21:50;;;;;;;13.40;4.50;;;;;;;;;;5069184;28;20651;-70
2022/02/15 07:24:16;;;;;;;14.63;4.80;;;;;;;;;;5064496;28;20169;-69
2022/02/15 07:26:41;;;;;;;15.57;4.43;;;;;;;;;;5051539;28;20189;-70
2022/02/15 07:29:06;;;;;;;8.30;4.40;;;;;;;;;;5058723;28;20216;-69
2022/02/15 07:31:32;;;;;;;10.77;4.50;;;;;;;;;;5065350;28;20323;-69
2022/02/15 07:33:57;;;;;;;14.90;4.40;;;;;;;;;;5068664;28;20169;-69
2022/02/15 07:36:22;;;;;;;14.97;4.37;;;;;;;;;;5071509;28;20305;-69
2022/02/15 07:38:47;;;;;;;9.87;5.13;;;;;;;;;;5065724;28;20176;-69
2022/02/15 07:41:12;;;;;;;15.20;5.77;;;;;;;;;;5071051;28;20219;-70
2022/02/15 07:43:38;;;;;;;13.60;4.60;;;;;;;;;;5067224;28;20173;-67
2022/02/15 07:46:03;;;;;;;17.97;4.73;;;;;;;;;;5065931;28;20205;-68
2022/02/15 07:48:28;;;;;;;16.67;6.47;;;;;;;;;;5068939;28;20341;-69
2022/02/15 07:50:54;;;;;;;9.47;4.60;;;;;;;;;;5067068;28;20224;-69
2022/02/15 07:53:20;;;;;;;9.97;5.37;;;;;;;;;;5068578;28;20689;-69
2022/02/15 07:55:45;;;;;;;10.60;4.70;;;;;;;;;;5063829;28;20165;-69
2022/02/15 07:58:10;;;;;;;15.90;4.80;;;;;;;;;;5063842;28;20196;-69
2022/02/15 08:00:36;;;;;;;13.80;5.10;;;;;;;;;;5068131;28;20207;-69
2022/02/15 08:03:01;;;;;;;12.07;4.47;;;;;;;;;;5063231;28;20195;-69
2022/02/15 08:05:26;;;;;;;12.73;4.63;;;;;;;;;;5062655;28;20272;-68
2022/02/15 08:07:53;;;;;;;8.70;4.57;;;;;;;;;;5056436;28;21200;-68
2022/02/15 08:10:18;;;;;;;8.20;4.20;;;;;;;;;;5066602;28;20898;-70
2022/02/15 08:12:47;;;;;;;10.23;4.30;;;;;;;;;;5068072;28;20633;-69
2022/02/15 08:15:12;;;;;;;9.53;4.90;;;;;;;;;;5069086;28;20173;-69
2022/02/15 08:17:37;;;;;;;8.80;4.07;;;;;;;;;;5069466;28;20173;-68
2022/02/15 08:20:03;;;;;;;8.80;3.67;;;;;;;;;;5071006;28;20674;-70
2022/02/15 08:22:28;;;;;;;19.83;5.10;;;;;;;;;;5070564;28;20169;-69
2022/02/15 08:24:53;;;;;;;10.30;4.00;;;;;;;;;;5072412;28;20246;-69
2022/02/15 08:27:18;;;;;;;16.63;4.43;;;;;;;;;;5064716;28;20205;-69
2022/02/15 08:29:44;;;;;;;14.30;4.53;;;;;;;;;;5071330;28;20320;-69
2022/02/15 08:32:09;;;;;;;13.67;4.73;;;;;;;;;;5074191;28;20193;-69
2022/02/15 08:34:35;;;;;;;14.13;3.77;;;;;;;;;;5071242;28;20172;-69
2022/02/15 08:37:02;;;;;;;10.67;3.23;;;;;;;;;;5071740;28;20180;-69
2022/02/15 08:39:28;;;;;;;13.63;4.23;;;;;;;;;;5066197;28;20177;-69
2022/02/15 08:41:53;;;;;;;11.60;4.07;;;;;;;;;;5067480;28;20193;-69
2022/02/15 08:44:19;;;;;;;8.33;3.20;;;;;;;;;;5067359;28;20200;-70
2022/02/15 08:46:44;;;;;;;9.03;2.90;;;;;;;;;;5069805;28;20707;-69
2022/02/15 08:49:09;;;;;;;9.97;2.97;;;;;;;;;;5050421;28;20174;-69
2022/02/15 08:51:37;;;;;;;9.23;3.20;;;;;;;;;;5068389;28;20193;-69
2022/02/15 08:54:03;;;;;;;10.63;2.87;;;;;;;;;;5061545;28;20176;-69
2022/02/15 08:56:28;;;;;;;9.67;2.93;;;;;;;;;;5050178;28;20176;-69
2022/02/15 08:58:53;;;;;;;9.40;2.97;;;;;;;;;;5061728;28;20181;-69
2022/02/15 09:01:19;;;;;;;10.07;3.27;;;;;;;;;;5068727;28;20193;-69
2022/02/15 09:03:44;;;;;;;12.07;2.93;;;;;;;;;;5052477;28;20612;-69
2022/02/15 09:06:10;;;;;;;5.13;2.77;;;;;;;;;;5067328;28;20201;-69
2022/02/15 09:08:36;;;;;;;8.53;4.77;;;;;;;;;;5068235;28;20280;-69
2022/02/15 09:11:01;;;;;;;9.20;3.20;;;;;;;;;;5056877;28;20370;-69
2022/02/15 09:13:26;;;;;;;5.33;2.53;;;;;;;;;;5070117;28;20213;-69
2022/02/15 09:15:52;;;;;;;11.67;2.90;;;;;;;;;;5067616;28;20177;-69
2022/02/15 09:18:17;;;;;;;6.70;2.30;;;;;;;;;;5066967;28;20195;-69
2022/02/15 09:20:42;;;;;;;6.50;2.00;;;;;;;;;;5066189;28;20602;-69
2022/02/15 09:23:07;;;;;;;8.70;2.30;;;;;;;;;;5067058;28;20181;-69
2022/02/15 09:25:33;;;;;;;6.13;1.77;;;;;;;;;;5067943;28;20181;-69
2022/02/15 09:27:58;;;;;;;5.30;2.03;;;;;;;;;;5067145;28;20180;-69
2022/02/15 09:30:24;;;;;;;8.80;2.40;;;;;;;;;;5067824;28;20201;-69
2022/02/15 09:32:49;;;;;;;8.70;2.77;;;;;;;;;;5066466;28;20204;-69
2022/02/15 09:35:15;;;;;;;9.23;2.83;;;;;;;;;;5065815;28;20177;-69
2022/02/15 09:37:40;;;;;;;7.53;2.10;;;;;;;;;;5070664;28;20181;-69
2022/02/15 09:40:06;;;;;;;7.13;2.50;;;;;;;;;;5064385;28;20204;-70
2022/02/15 09:42:31;;;;;;;6.80;2.20;;;;;;;;;;5043515;28;20191;-69
2022/02/15 09:44:56;;;;;;;8.97;2.33;;;;;;;;;;5069219;28;20259;-69
2022/02/15 09:47:26;;;;;;;5.17;2.20;;;;;;;;;;5068694;28;21747;-69
2022/02/15 09:49:52;;;;;;;6.97;2.07;;;;;;;;;;5066169;28;20606;-69
2022/02/15 09:52:18;;;;;;;7.73;2.43;;;;;;;;;;5067537;28;20176;-70
2022/02/15 09:54:45;;;;;;;8.83;1.93;;;;;;;;;;5063677;28;20169;-69
2022/02/15 09:57:11;;;;;;;8.03;2.13;;;;;;;;;;5070982;28;20181;-70
2022/02/15 09:59:36;;;;;;;8.03;2.10;;;;;;;;;;5065901;28;20308;-69
2022/02/15 10:02:04;;;;;;;10.57;1.97;;;;;;;;;;5069194;28;20270;-69
2022/02/15 10:04:33;;;;;;;7.60;2.10;;;;;;;;;;5068103;28;20612;-69
2022/02/15 10:06:58;;;;;;;7.57;1.80;;;;;;;;;;5068122;28;20630;-69
2022/02/15 10:09:25;;;;;;;7.73;2.30;;;;;;;;;;5073000;28;20173;-70
2022/02/15 10:11:50;;;;;;;5.63;1.80;;;;;;;;;;5056126;28;20297;-69
2022/02/15 10:14:17;;;;;;;6.40;1.73;;;;;;;;;;5037945;28;20644;-70
2022/02/15 10:16:45;;;;;;;10.17;2.10;;;;;;;;;;5070484;28;20181;-69
2022/02/15 10:19:11;;;;;;;5.63;2.10;;;;;;;;;;5051556;28;20184;-70
2022/02/15 10:21:40;;;;;;;10.93;1.80;;;;;;;;;;5066716;28;20292;-69
2022/02/15 10:24:12;;;;;;;9.77;2.20;;;;;;;;;;5070178;28;20180;-69
2022/02/15 10:26:40;;;;;;;6.67;1.87;;;;;;;;;;5064421;28;20660;-69
2022/02/15 10:29:05;;;;;;;6.20;1.37;;;;;;;;;;5067472;28;20169;-69
2022/02/15 10:31:40;;;;;;;9.70;1.80;;;;;;;;;;5070481;28;20199;-70
2022/02/15 10:34:06;;;;;;;7.97;1.70;;;;;;;;;;5068010;28;20676;-69
2022/02/15 10:36:31;;;;;;;6.43;1.30;;;;;;;;;;5066191;28;20263;-70
2022/02/15 10:38:57;;;;;;;6.63;1.87;;;;;;;;;;5060893;28;20543;-69
2022/02/15 10:41:23;;;;;;;9.00;1.80;;;;;;;;;;5069403;28;20204;-69
2022/02/15 10:43:48;;;;;;;5.60;1.63;;;;;;;;;;5049998;28;20181;-69
2022/02/15 10:46:18;;;;;;;6.17;1.70;;;;;;;;;;5071086;28;20258;-70
2022/02/15 10:48:44;;;;;;;10.77;1.73;;;;;;;;;;5066603;28;20453;-69
2022/02/15 10:51:10;;;;;;;5.73;1.90;;;;;;;;;;5051421;28;20724;-69
2022/02/15 10:53:35;;;;;;;5.83;1.33;;;;;;;;;;5068608;28;20546;-71
2022/02/15 10:56:01;;;;;;;2.53;1.20;;;;;;;;;;5070155;28;20302;-71
2022/02/15 10:58:27;;;;;;;6.70;1.60;;;;;;;;;;5068121;28;20420;-71
2022/02/15 11:00:52;;;;;;;7.30;1.63;;;;;;;;;;5070550;28;20201;-70
2022/02/15 11:03:19;;;;;;;8.80;2.07;;;;;;;;;;5068963;28;20712;-70
2022/02/15 11:05:44;;;;;;;5.40;1.13;;;;;;;;;;5067910;28;20204;-70
2022/02/15 11:08:10;;;;;;;5.33;1.50;;;;;;;;;;5075639;28;20259;-69
2022/02/15 11:10:41;;;;;;;6.53;1.53;;;;;;;;;;5070772;28;20197;-69
2022/02/15 11:13:07;;;;;;;5.57;1.30;;;;;;;;;;5069669;28;20701;-70
2022/02/15 11:15:33;;;;;;;4.30;1.20;;;;;;;;;;5059836;28;20234;-69
2022/02/15 11:18:00;;;;;;;8.10;1.30;;;;;;;;;;5072940;28;20229;-69
2022/02/15 11:20:50;;;;;;;9.70;1.43;;;;;;;;;;5070228;28;20698;-69
2022/02/15 11:23:19;;;;;;;2.53;0.77;;;;;;;;;;5067762;28;20509;-70
2022/02/15 11:25:45;;;;;;;11.37;2.27;;;;;;;;;;5071108;28;20192;-70
2022/02/15 11:28:14;;;;;;;5.70;1.47;;;;;;;;;;5068918;28;20698;-69
2022/02/15 11:30:44;;;;;;;6.13;1.20;;;;;;;;;;5073099;28;20687;-69
2022/02/15 11:33:09;;;;;;;3.53;1.13;;;;;;;;;;5073225;28;20181;-69
2022/02/15 11:35:34;;;;;;;3.43;1.20;;;;;;;;;;5069879;28;20607;-70
2022/02/15 11:38:07;;;;;;;5.33;1.40;;;;;;;;;;5067266;28;20180;-70
2022/02/15 11:40:35;;;;;;;3.73;1.40;;;;;;;;;;5069369;28;20185;-71
2022/02/15 11:43:03;;;;;;;5.60;1.47;;;;;;;;;;5068104;28;20650;-69
2022/02/15 11:45:28;;;;;;;2.93;1.30;;;;;;;;;;5069233;28;20173;-69
2022/02/15 11:48:14;;;;;;;2.97;1.20;;;;;;;;;;5070722;28;20181;-69
2022/02/15 11:50:43;;;;;;;7.70;1.87;;;;;;;;;;5066272;28;20209;-69
2022/02/15 11:53:08;;;;;;;5.33;2.17;;;;;;;;;;5069543;28;20177;-69
2022/02/15 11:55:35;;;;;;;5.63;1.83;;;;;;;;;;5072406;28;20165;-69
2022/02/15 11:58:00;;;;;;;3.97;1.80;;;;;;;;;;5069594;28;20177;-70
2022/02/15 12:00:31;;;;;;;4.73;1.20;;;;;;;;;;5070910;28;20192;-69
2022/02/15 12:02:56;;;;;;;6.27;1.87;;;;;;;;;;5073042;28;20177;-69
2022/02/15 12:05:29;;;;;;;8.93;1.50;;;;;;;;;;5053052;28;20189;-70
2022/02/15 12:07:55;;;;;;;6.17;1.60;;;;;;;;;;5071678;28;20183;-70
2022/02/15 12:10:20;;;;;;;5.23;1.10;;;;;;;;;;5069647;28;20627;-70
2022/02/15 12:12:47;;;;;;;3.47;1.17;;;;;;;;;;5070963;28;20193;-69
2022/02/15 12:15:12;;;;;;;4.73;1.60;;;;;;;;;;5067006;28;20235;-69
2022/02/15 12:17:44;;;;;;;3.33;1.30;;;;;;;;;;5053479;28;20193;-69
2022/02/15 12:20:12;;;;;;;2.97;1.40;;;;;;;;;;5068268;28;20283;-69
2022/02/15 12:22:39;;;;;;;1.87;1.20;;;;;;;;;;5069538;28;20190;-70
2022/02/15 12:25:04;;;;;;;12.73;2.37;;;;;;;;;;5068145;28;20191;-70
2022/02/15 12:27:29;;;;;;;10.43;1.73;;;;;;;;;;5072704;28;20209;-69
2022/02/15 12:29:55;;;;;;;5.93;1.30;;;;;;;;;;5071590;28;20188;-69
2022/02/15 12:32:22;;;;;;;7.33;1.47;;;;;;;;;;5072816;28;20185;-70
2022/02/15 12:34:47;;;;;;;7.00;2.00;;;;;;;;;;5070511;28;20252;-69
2022/02/15 12:37:16;;;;;;;4.53;1.80;;;;;;;;;;5070730;28;20192;-69
2022/02/15 12:39:41;;;;;;;5.20;2.40;;;;;;;;;;5063353;28;20585;-70
2022/02/15 12:42:10;;;;;;;3.27;1.57;;;;;;;;;;5070138;28;20177;-70
2022/02/15 12:44:36;;;;;;;5.90;1.90;;;;;;;;;;5064336;28;20246;-70
2022/02/15 12:47:02;;;;;;;5.53;1.77;;;;;;;;;;5071629;28;20204;-70
2022/02/15 12:49:27;;;;;;;12.37;1.63;;;;;;;;;;5071450;28;20161;-71
2022/02/15 12:51:52;;;;;;;5.97;2.30;;;;;;;;;;5071975;28;20618;-68
2022/02/15 12:54:19;;;;;;;5.17;1.63;;;;;;;;;;5067623;28;20173;-71
2022/02/15 12:56:45;;;;;;;6.23;2.00;;;;;;;;;;5069397;28;20256;-71
2022/02/15 12:59:10;;;;;;;3.90;1.50;;;;;;;;;;5072258;28;20183;-70
2022/02/15 13:01:37;;;;;;;6.43;2.33;;;;;;;;;;5071168;28;20193;-71
2022/02/15 13:04:04;;;;;;;6.53;2.03;;;;;;;;;;5069636;28;20230;-71
2022/02/15 13:06:30;;;;;;;5.97;2.40;;;;;;;;;;5065632;28;20197;-70
2022/02/15 13:08:56;;;;;;;5.90;1.53;;;;;;;;;;5071397;28;20525;-70
2022/02/15 13:11:29;;;;;;;9.40;1.70;;;;;;;;;;5068600;28;20693;-69
2022/02/15 13:13:56;;;;;;;6.97;1.40;;;;;;;;;;5064908;28;20173;-70
2022/02/15 13:16:21;;;;;;;4.00;1.53;;;;;;;;;;5070483;28;20719;-70
2022/02/15 13:18:48;;;;;;;6.77;1.50;;;;;;;;;;5060410;28;20182;-70
2022/02/15 13:21:21;;;;;;;8.77;2.47;;;;;;;;;;5064925;28;20311;-70
2022/02/15 13:24:06;;;;;;;9.73;1.83;;;;;;;;;;5069422;28;20302;-70
2022/02/15 13:26:32;;;;;;;11.37;2.73;;;;;;;;;;5068701;28;20265;-70
2022/02/15 13:28:57;;;;;;;5.07;1.90;;;;;;;;;;5065861;28;20178;-69
2022/02/15 13:31:23;;;;;;;7.50;2.10;;;;;;;;;;5060926;28;20261;-69
2022/02/15 13:33:52;;;;;;;8.90;2.00;;;;;;;;;;5066644;28;20173;-70
2022/02/15 13:36:19;;;;;;;5.80;2.00;;;;;;;;;;5065560;28;20177;-70
2022/02/15 13:38:44;;;;;;;5.33;1.93;;;;;;;;;;5067428;28;20290;-70
2022/02/15 13:41:09;;;;;;;7.27;2.00;;;;;;;;;;5067456;28;20859;-70
2022/02/15 13:43:34;;;;;;;5.50;2.13;;;;;;;;;;5068692;28;20184;-70
2022/02/15 13:46:00;;;;;;;7.30;2.07;;;;;;;;;;5068708;28;20208;-70
2022/02/15 13:48:25;;;;;;;5.43;2.57;;;;;;;;;;5065397;28;20699;-70
2022/02/15 13:50:56;;;;;;;4.33;1.73;;;;;;;;;;5069563;28;20200;-70
2022/02/15 13:53:22;;;;;;;8.33;2.90;;;;;;;;;;5063534;28;20513;-70
2022/02/15 13:55:47;;;;;;;4.43;1.60;;;;;;;;;;5065810;28;20176;-69
2022/02/15 13:58:13;;;;;;;6.67;2.00;;;;;;;;;;5069222;28;20266;-69
2022/02/15 14:00:38;;;;;;;7.53;2.60;;;;;;;;;;5065228;28;20825;-69
2022/02/15 14:03:03;;;;;;;10.43;2.33;;;;;;;;;;5071176;28;20632;-69
2022/02/15 14:05:29;;;;;;;11.87;2.93;;;;;;;;;;5062705;28;20199;-69
2022/02/15 14:07:55;;;;;;;6.23;2.40;;;;;;;;;;5049232;28;20204;-69
2022/02/15 14:10:22;;;;;;;7.53;1.73;;;;;;;;;;5070332;28;20721;-69
2022/02/15 14:12:47;;;;;;;7.90;2.30;;;;;;;;;;5066368;28;20268;-69
2022/02/15 14:15:13;;;;;;;4.47;1.83;;;;;;;;;;5064466;28;20183;-70
2022/02/15 14:17:43;;;;;;;6.20;1.53;;;;;;;;;;5069691;28;20188;-70
2022/02/15 14:22:47;;;;;;;8.90;2.17;;;;;;;;;;4996113;28;20357;-69
2022/02/15 14:25:14;;;;;;;5.60;1.90;;;;;;;;;;5008373;28;20179;-68
2022/02/15 14:27:39;;;;;;;6.27;1.73;;;;;;;;;;5009644;28;20633;-68
2022/02/15 14:30:09;;;;;;;5.13;1.53;;;;;;;;;;5010043;28;20183;-69
2022/02/15 14:32:34;;;;;;;6.13;2.17;;;;;;;;;;4976554;28;20230;-68
2022/02/15 14:34:59;;;;;;;7.13;1.80;;;;;;;;;;4989583;28;20199;-69